Time;durP1;ratioP1;P1;durP2;ratioP2;P2;SDS_P1;SDS_P2;PMS_P1;PMS_P2;Temp;Humidity;BMP_temperature;BMP_pressure;BME280_temperature;BME280_humidity;BME280_pressure;Samples;Min_cycle;Max_cycle;Signal;HPM_P1;HPM_P2
2023/09/24 00:01:16;;;;;;;2.30;1.73;;;21.30;58.40;;;;;;5055849;28;20225;-51
2023/09/24 00:03:44;;;;;;;2.40;1.42;;;21.30;58.30;;;;;;5073990;28;20187;-50
2023/09/24 00:06:11;;;;;;;4.00;1.60;;;21.30;58.30;;;;;;5055508;28;20230;-50
2023/09/24 00:08:38;;;;;;;2.95;1.70;;;21.30;58.20;;;;;;5055341;28;20226;-50
2023/09/24 00:11:05;;;;;;;2.25;1.70;;;21.20;58.10;;;;;;5073662;28;20191;-50
2023/09/24 00:13:34;;;;;;;2.03;1.58;;;21.20;58.00;;;;;;5055670;28;20194;-50
2023/09/24 00:16:05;;;;;;;1.70;1.50;;;21.20;58.00;;;;;;5073543;28;20240;-50
2023/09/24 00:18:33;;;;;;;2.42;1.73;;;21.20;57.90;;;;;;5055408;28;20215;-50
2023/09/24 00:21:00;;;;;;;2.35;1.67;;;21.20;57.80;;;;;;5055494;28;20206;-50
2023/09/24 00:23:28;;;;;;;2.55;1.40;;;21.20;57.70;;;;;;5055227;28;20659;-51
2023/09/24 00:25:56;;;;;;;2.75;1.83;;;21.20;57.60;;;;;;5055496;28;20206;-50
2023/09/24 00:28:24;;;;;;;2.67;1.52;;;21.20;57.50;;;;;;5074056;28;20222;-51
2023/09/24 00:30:54;;;;;;;1.80;1.60;;;21.20;57.50;;;;;;5055326;28;20667;-51
2023/09/24 00:33:23;;;;;;;2.28;1.58;;;21.20;57.30;;;;;;5073335;28;20214;-50
2023/09/24 00:35:50;;;;;;;2.42;1.75;;;21.20;57.20;;;;;;5055282;28;20293;-51
2023/09/24 00:38:19;;;;;;;2.30;1.65;;;21.10;57.10;;;;;;5055143;28;20276;-50
2023/09/24 00:40:46;;;;;;;2.47;1.58;;;21.10;57.10;;;;;;5073241;28;20193;-51
2023/09/24 00:43:27;;;;;;;1.88;1.50;;;21.10;57.10;;;;;;5055309;28;20202;-50
2023/09/24 00:45:56;;;;;;;1.90;1.58;;;21.10;57.00;;;;;;5073197;28;20187;-51
2023/09/24 00:48:28;;;;;;;2.65;1.58;;;21.10;56.90;;;;;;5055149;28;20221;-50
2023/09/24 00:50:57;;;;;;;3.10;1.70;;;21.10;56.90;;;;;;5056333;28;20195;-50
2023/09/24 00:53:25;;;;;;;2.47;1.42;;;21.10;56.90;;;;;;5073389;28;20187;-50
2023/09/24 00:55:52;;;;;;;2.38;1.40;;;21.10;56.90;;;;;;5055199;28;20199;-50
2023/09/24 00:58:19;;;;;;;2.60;1.58;;;21.00;56.80;;;;;;5054997;28;20627;-50
2023/09/24 01:00:47;;;;;;;2.47;1.50;;;21.00;56.70;;;;;;5073111;28;20652;-50
2023/09/24 01:03:15;;;;;;;1.92;1.65;;;21.00;56.70;;;;;;5073007;28;20190;-50
2023/09/24 01:05:43;;;;;;;2.15;1.67;;;21.00;56.70;;;;;;5055086;28;20191;-51
2023/09/24 01:08:11;;;;;;;1.67;1.40;;;21.00;56.60;;;;;;5055052;28;20227;-50
2023/09/24 01:10:39;;;;;;;2.03;1.77;;;20.90;56.70;;;;;;5054985;28;20186;-50
2023/09/24 01:13:06;;;;;;;2.60;1.92;;;20.90;56.50;;;;;;5054963;28;20198;-50
2023/09/24 01:15:34;;;;;;;2.03;1.48;;;20.90;56.50;;;;;;5054946;28;20198;-50
2023/09/24 01:18:04;;;;;;;2.58;1.60;;;20.90;57.10;;;;;;5055580;28;20691;-50
2023/09/24 01:20:32;;;;;;;1.77;1.48;;;20.90;56.50;;;;;;5058976;28;20795;-50
2023/09/24 01:23:04;;;;;;;1.48;1.38;;;20.90;56.50;;;;;;5058708;28;20205;-50
2023/09/24 01:25:35;;;;;;;2.15;1.60;;;20.90;56.50;;;;;;5059016;28;20779;-50
2023/09/24 01:28:04;;;;;;;2.28;1.70;;;20.90;56.40;;;;;;5076922;28;20286;-50
2023/09/24 01:30:31;;;;;;;2.38;1.75;;;20.90;56.40;;;;;;5076855;28;20193;-50
2023/09/24 01:32:58;;;;;;;1.35;1.25;;;20.80;56.30;;;;;;5058804;28;20244;-50
2023/09/24 01:35:27;;;;;;;2.17;1.58;;;20.80;56.30;;;;;;5058605;28;20202;-51
2023/09/24 01:37:56;;;;;;;2.05;1.70;;;20.80;56.20;;;;;;5058719;28;20226;-50
2023/09/24 01:40:25;;;;;;;2.80;1.77;;;20.80;56.30;;;;;;5058338;28;20214;-51
2023/09/24 01:42:55;;;;;;;1.95;1.30;;;20.80;56.30;;;;;;5076328;28;20252;-50
2023/09/24 01:45:22;;;;;;;2.97;1.75;;;20.80;56.20;;;;;;5058636;28;20220;-50
2023/09/24 01:47:50;;;;;;;1.50;1.40;;;20.80;56.20;;;;;;5058280;28;20625;-50
2023/09/24 01:50:17;;;;;;;1.70;1.50;;;20.80;56.20;;;;;;5076512;28;20590;-50
2023/09/24 01:52:45;;;;;;;2.10;1.70;;;20.70;56.00;;;;;;5058256;28;20195;-50
2023/09/24 01:55:15;;;;;;;1.88;1.45;;;20.70;56.00;;;;;;5058250;28;20674;-50
2023/09/24 01:57:44;;;;;;;1.42;1.33;;;20.70;56.00;;;;;;5076192;28;20297;-50
2023/09/24 02:00:15;;;;;;;2.70;1.60;;;20.70;55.90;;;;;;5058023;28;20222;-50
2023/09/24 02:02:43;;;;;;;2.47;1.50;;;20.70;55.90;;;;;;5076007;28;20175;-51
2023/09/24 02:05:11;;;;;;;1.65;1.50;;;20.70;55.90;;;;;;5057968;28;20210;-50
2023/09/24 02:07:40;;;;;;;2.97;1.38;;;20.70;55.80;;;;;;5058140;28;20221;-50
2023/09/24 02:10:08;;;;;;;1.65;1.50;;;20.70;55.90;;;;;;5075892;28;20198;-50
2023/09/24 02:12:36;;;;;;;1.70;1.60;;;20.70;55.80;;;;;;5058505;28;20199;-50
2023/09/24 02:15:11;;;;;;;1.80;1.70;;;20.60;55.70;;;;;;5057823;28;20187;-50
2023/09/24 02:17:41;;;;;;;2.25;1.40;;;20.60;55.70;;;;;;5057996;28;20210;-50
2023/09/24 02:20:14;;;;;;;1.70;1.30;;;20.60;55.70;;;;;;5075592;28;20252;-50
2023/09/24 02:22:43;;;;;;;1.63;1.50;;;20.60;55.60;;;;;;5057719;28;20214;-50
2023/09/24 02:25:13;;;;;;;2.08;1.67;;;20.60;55.70;;;;;;5057646;28;20758;-50
2023/09/24 02:27:41;;;;;;;1.40;1.30;;;20.60;55.60;;;;;;5058149;28;20215;-50
2023/09/24 02:30:11;;;;;;;2.17;1.70;;;20.60;55.70;;;;;;5059464;22;20228;-77
2023/09/24 02:32:39;;;;;;;1.90;1.60;;;20.60;55.60;;;;;;5018390;28;20196;-77
2023/09/24 02:35:08;;;;;;;1.63;1.42;;;20.60;55.70;;;;;;5034631;28;20196;-77
2023/09/24 02:37:36;;;;;;;1.80;1.40;;;20.60;56.20;;;;;;5034614;28;20196;-77
2023/09/24 02:40:11;;;;;;;1.80;1.30;;;20.50;55.50;;;;;;5034920;28;20686;-77
2023/09/24 02:42:42;;;;;;;1.90;1.70;;;20.50;55.50;;;;;;5034488;28;20554;-77
2023/09/24 02:45:11;;;;;;;1.90;1.52;;;20.50;55.50;;;;;;5034324;28;20199;-77
2023/09/24 02:47:38;;;;;;;1.83;1.40;;;20.50;55.40;;;;;;5018543;28;20214;-77
2023/09/24 02:50:12;;;;;;;1.83;1.65;;;20.50;55.40;;;;;;5018141;28;20655;-77
2023/09/24 02:52:40;;;;;;;1.52;1.35;;;20.50;55.40;;;;;;5034501;28;20203;-77
2023/09/24 02:55:10;;;;;;;1.58;1.38;;;20.50;55.40;;;;;;5034501;28;20197;-77
2023/09/24 02:57:37;;;;;;;1.50;1.40;;;20.40;55.40;;;;;;5034367;28;20204;-77
2023/09/24 03:00:17;;;;;;;1.70;1.33;;;20.40;55.40;;;;;;5034150;28;20220;-77
2023/09/24 03:02:46;;;;;;;1.50;1.40;;;20.40;55.40;;;;;;5034177;28;20204;-77
2023/09/24 03:05:20;;;;;;;1.50;1.40;;;20.40;55.30;;;;;;5017656;28;20199;-77
2023/09/24 03:07:50;;;;;;;1.60;1.27;;;20.40;55.30;;;;;;5034070;28;20200;-77
2023/09/24 03:10:18;;;;;;;1.85;1.40;;;20.40;55.10;;;;;;5034024;28;20185;-77
2023/09/24 03:12:45;;;;;;;1.80;1.48;;;20.40;54.90;;;;;;5033918;28;20299;-77
2023/09/24 03:15:13;;;;;;;1.70;1.60;;;20.40;54.40;;;;;;5033882;28;20204;-77
2023/09/24 03:17:41;;;;;;;1.60;1.50;;;20.40;54.20;;;;;;5035287;28;20614;-77
2023/09/24 03:20:15;;;;;;;1.45;1.35;;;20.40;54.20;;;;;;5034166;28;20226;-77
2023/09/24 03:22:43;;;;;;;2.13;1.30;;;20.50;54.20;;;;;;5033949;28;20219;-77
2023/09/24 03:25:10;;;;;;;4.35;1.50;;;20.50;54.10;;;;;;5034458;28;20200;-77
2023/09/24 03:27:39;;;;;;;1.92;1.50;;;20.50;54.10;;;;;;5033781;28;20196;-77
2023/09/24 03:30:09;;;;;;;1.30;1.20;;;20.60;53.90;;;;;;5033620;28;20196;-77
2023/09/24 03:32:37;;;;;;;1.42;1.25;;;20.60;53.70;;;;;;5033629;28;20246;-77
2023/09/24 03:35:06;;;;;;;1.98;1.42;;;20.70;53.70;;;;;;5022901;28;20227;-77
2023/09/24 03:37:37;;;;;;;1.75;1.23;;;20.70;53.30;;;;;;5033513;28;20288;-77
2023/09/24 03:40:06;;;;;;;1.33;1.23;;;20.80;53.10;;;;;;5033602;28;20212;-77
2023/09/24 03:42:33;;;;;;;2.35;1.45;;;20.80;53.10;;;;;;5032844;28;20290;-77
2023/09/24 03:45:00;;;;;;;1.33;1.23;;;20.80;52.90;;;;;;5033705;28;20200;-77
2023/09/24 03:47:27;;;;;;;1.38;1.27;;;20.90;52.90;;;;;;5033717;28;20200;-77
2023/09/24 03:49:55;;;;;;;1.45;1.33;;;20.80;52.80;;;;;;5033906;28;20318;-77
2023/09/24 03:52:22;;;;;;;1.58;1.48;;;20.90;52.70;;;;;;5033552;28;20192;-77
2023/09/24 03:54:51;;;;;;;1.27;1.17;;;20.90;52.70;;;;;;5033513;28;20200;-77
2023/09/24 03:57:19;;;;;;;1.58;1.40;;;20.80;52.80;;;;;;5033055;28;20695;-77
2023/09/24 03:59:46;;;;;;;1.60;1.30;;;20.90;52.80;;;;;;5033600;28;20216;-77
2023/09/24 04:02:14;;;;;;;1.38;1.27;;;20.80;52.60;;;;;;5033336;28;20235;-77
2023/09/24 04:04:42;;;;;;;2.13;1.73;;;20.90;52.60;;;;;;5033118;28;20200;-77
2023/09/24 04:07:09;;;;;;;1.40;1.30;;;20.80;52.70;;;;;;5033214;28;20582;-77
2023/09/24 04:09:36;;;;;;;2.55;1.63;;;20.80;52.70;;;;;;5033326;28;20188;-77
2023/09/24 04:12:05;;;;;;;1.98;1.40;;;20.80;52.60;;;;;;5032999;28;20246;-77
2023/09/24 04:14:32;;;;;;;1.55;1.45;;;20.80;52.60;;;;;;5032933;28;20262;-77
2023/09/24 04:16:59;;;;;;;1.40;1.30;;;20.80;52.60;;;;;;5033136;28;20223;-77
2023/09/24 04:19:27;;;;;;;2.35;1.40;;;20.80;52.60;;;;;;5033822;28;20212;-78
2023/09/24 04:21:54;;;;;;;1.60;1.50;;;20.80;53.00;;;;;;5033214;28;20654;-78
2023/09/24 04:24:22;;;;;;;2.33;1.50;;;20.80;52.60;;;;;;5032897;28;20629;-77
2023/09/24 04:26:49;;;;;;;2.30;1.50;;;20.80;52.60;;;;;;5032733;28;20220;-77
2023/09/24 04:29:18;;;;;;;1.42;1.33;;;20.80;52.50;;;;;;5032739;28;20686;-77
2023/09/24 04:31:45;;;;;;;2.30;1.58;;;20.70;52.50;;;;;;5033294;28;20283;-77
2023/09/24 04:34:12;;;;;;;1.70;1.60;;;20.70;52.50;;;;;;5032712;28;20203;-77
2023/09/24 04:36:41;;;;;;;1.88;1.60;;;20.70;52.40;;;;;;5032904;28;20216;-77
2023/09/24 04:39:09;;;;;;;2.28;1.25;;;20.70;52.50;;;;;;5034124;28;20192;-77
2023/09/24 04:41:37;;;;;;;1.50;1.40;;;20.70;52.40;;;;;;5032724;28;20200;-77
2023/09/24 04:44:04;;;;;;;1.70;1.20;;;20.60;52.50;;;;;;5032525;28;20192;-77
2023/09/24 04:46:32;;;;;;;1.50;1.40;;;20.60;52.50;;;;;;5032406;28;20251;-77
2023/09/24 04:49:02;;;;;;;1.60;1.50;;;20.60;52.50;;;;;;5032465;28;20200;-78
2023/09/24 04:51:29;;;;;;;1.55;1.23;;;20.60;52.50;;;;;;5032728;28;20192;-78
2023/09/24 04:53:56;;;;;;;1.40;1.30;;;20.60;52.50;;;;;;5036414;28;20241;-78
2023/09/24 04:56:23;;;;;;;2.17;1.75;;;20.60;52.50;;;;;;5021885;28;20227;-78
2023/09/24 04:58:50;;;;;;;1.50;1.40;;;20.60;52.50;;;;;;5036826;28;20203;-78
2023/09/24 05:01:17;;;;;;;1.48;1.38;;;20.60;52.50;;;;;;5037208;28;20266;-78
2023/09/24 05:03:46;;;;;;;1.50;1.40;;;20.50;52.40;;;;;;5037177;28;20199;-78
2023/09/24 05:06:13;;;;;;;2.33;1.60;;;20.50;52.50;;;;;;5036928;28;20230;-78
2023/09/24 05:08:40;;;;;;;1.52;1.25;;;20.50;52.50;;;;;;5037128;28;20592;-78
2023/09/24 05:11:10;;;;;;;1.33;1.23;;;20.50;52.60;;;;;;5020395;28;20254;-78
2023/09/24 05:13:37;;;;;;;1.63;1.50;;;20.50;52.80;;;;;;5037252;28;20200;-78
2023/09/24 05:16:05;;;;;;;1.55;1.45;;;20.50;52.80;;;;;;5036872;28;20239;-78
2023/09/24 05:18:33;;;;;;;1.42;1.33;;;20.40;52.80;;;;;;5036856;28;20224;-78
2023/09/24 05:21:02;;;;;;;2.53;1.40;;;20.50;53.00;;;;;;5036219;28;20215;-78
2023/09/24 05:23:29;;;;;;;1.63;1.40;;;20.40;53.00;;;;;;5036146;28;20291;-78
2023/09/24 05:25:56;;;;;;;1.50;1.40;;;20.40;53.00;;;;;;5036271;28;20220;-78
2023/09/24 05:28:23;;;;;;;1.65;1.50;;;20.40;53.10;;;;;;5036293;28;20570;-78
2023/09/24 05:30:54;;;;;;;1.35;1.25;;;20.40;53.20;;;;;;5036506;28;20200;-78
2023/09/24 05:33:20;;;;;;;1.40;1.30;;;20.40;53.30;;;;;;5036025;28;20239;-78
2023/09/24 05:35:51;;;;;;;1.67;1.58;;;20.30;53.30;;;;;;5036016;28;20226;-78
2023/09/24 05:38:19;;;;;;;1.45;1.33;;;20.30;53.30;;;;;;5036199;28;20219;-78
2023/09/24 05:40:46;;;;;;;2.55;1.70;;;20.30;53.30;;;;;;5036110;28;20212;-78
2023/09/24 05:43:13;;;;;;;1.52;1.42;;;20.30;53.30;;;;;;5037300;28;20223;-78
2023/09/24 05:45:46;;;;;;;2.65;1.30;;;20.30;53.30;;;;;;5020211;28;20216;-78
2023/09/24 05:48:13;;;;;;;3.08;1.50;;;20.30;53.30;;;;;;5037533;28;20188;-78
2023/09/24 05:50:41;;;;;;;1.92;1.40;;;20.30;53.20;;;;;;5036112;28;20204;-79
2023/09/24 05:53:09;;;;;;;1.50;1.40;;;20.30;53.30;;;;;;5036018;28;20230;-79
2023/09/24 05:55:37;;;;;;;2.65;1.40;;;20.30;53.20;;;;;;5036202;28;20220;-79
2023/09/24 05:58:04;;;;;;;1.75;1.50;;;20.30;53.20;;;;;;5036787;28;20208;-78
2023/09/24 06:00:33;;;;;;;2.60;1.50;;;20.30;53.10;;;;;;5035434;28;20636;-78
2023/09/24 06:03:00;;;;;;;2.00;1.50;;;20.30;53.10;;;;;;5035536;28;20575;-78
2023/09/24 06:05:28;;;;;;;1.73;1.35;;;20.30;53.10;;;;;;5034439;28;20278;-78
2023/09/24 06:07:55;;;;;;;1.30;1.20;;;20.30;53.10;;;;;;5035780;28;20206;-77
2023/09/24 06:10:23;;;;;;;2.75;1.60;;;20.30;53.00;;;;;;5035595;28;20230;-77
2023/09/24 06:12:52;;;;;;;1.52;1.42;;;20.30;53.00;;;;;;5035655;28;20200;-77
2023/09/24 06:15:20;;;;;;;3.58;1.42;;;20.30;53.00;;;;;;5035392;28;20212;-77
2023/09/24 06:17:47;;;;;;;1.35;1.25;;;20.30;52.90;;;;;;5035164;28;20659;-77
2023/09/24 06:20:16;;;;;;;1.50;1.40;;;20.40;53.00;;;;;;5035053;28;20258;-77
2023/09/24 06:22:43;;;;;;;1.70;1.60;;;20.40;52.90;;;;;;5051411;22;20515;-82
2023/09/24 06:25:10;;;;;;;1.27;1.17;;;20.40;52.90;;;;;;5008193;28;20753;-82
2023/09/24 06:27:37;;;;;;;1.52;1.30;;;20.40;52.80;;;;;;5023593;28;20195;-82
2023/09/24 06:30:08;;;;;;;1.75;1.40;;;20.40;52.80;;;;;;5039706;28;20202;-82
2023/09/24 06:32:35;;;;;;;1.55;1.40;;;20.40;52.80;;;;;;5039121;28;20607;-82
2023/09/24 06:35:03;;;;;;;1.50;1.40;;;20.40;52.80;;;;;;5038286;28;20571;-82
2023/09/24 06:37:30;;;;;;;1.42;1.33;;;20.40;52.70;;;;;;5038884;28;20205;-82
2023/09/24 06:39:58;;;;;;;1.77;1.30;;;20.40;52.70;;;;;;5022451;28;20210;-82
2023/09/24 06:42:25;;;;;;;1.40;1.30;;;20.40;52.70;;;;;;5038495;28;20260;-82
2023/09/24 06:44:52;;;;;;;1.50;1.40;;;20.40;52.60;;;;;;5038610;28;20282;-82
2023/09/24 06:47:20;;;;;;;1.58;1.48;;;20.40;52.60;;;;;;5038830;28;20674;-82
2023/09/24 06:49:48;;;;;;;1.55;1.45;;;20.50;52.60;;;;;;5039270;28;20208;-82
2023/09/24 06:52:15;;;;;;;1.30;1.20;;;20.50;52.50;;;;;;5038912;28;20195;-82
2023/09/24 06:54:42;;;;;;;1.67;1.42;;;20.50;52.40;;;;;;5022140;28;20214;-82
2023/09/24 06:57:09;;;;;;;1.60;1.38;;;20.50;52.30;;;;;;5038566;28;20223;-82
2023/09/24 06:59:36;;;;;;;1.58;1.48;;;20.50;52.20;;;;;;5038522;28;20214;-82
2023/09/24 07:02:03;;;;;;;1.70;1.60;;;20.60;52.20;;;;;;5039070;28;20215;-82
2023/09/24 07:04:32;;;;;;;2.38;1.40;;;20.60;52.10;;;;;;5039132;28;20191;-82
2023/09/24 07:06:59;;;;;;;1.58;1.45;;;20.60;52.10;;;;;;5038778;28;20223;-82
2023/09/24 07:09:26;;;;;;;1.90;1.80;;;20.60;52.10;;;;;;5040911;28;20188;-83
2023/09/24 07:11:53;;;;;;;1.88;1.50;;;20.70;51.70;;;;;;5038421;28;20199;-82
2023/09/24 07:14:20;;;;;;;1.77;1.67;;;20.80;51.70;;;;;;5040904;28;20261;-82
2023/09/24 07:16:48;;;;;;;1.50;1.40;;;20.80;51.50;;;;;;5039754;28;20689;-82
2023/09/24 07:19:15;;;;;;;1.60;1.50;;;21.00;51.20;;;;;;5040406;28;20576;-82
2023/09/24 07:21:44;;;;;;;2.15;1.50;;;21.10;51.10;;;;;;5038814;28;20242;-82
2023/09/24 07:24:11;;;;;;;2.00;1.70;;;21.20;51.00;;;;;;5041281;28;20516;-82
2023/09/24 07:26:39;;;;;;;2.05;1.77;;;21.30;50.80;;;;;;5039527;28;20647;-82
2023/09/24 07:29:06;;;;;;;2.03;1.60;;;21.40;50.50;;;;;;5038678;28;20191;-82
2023/09/24 07:31:34;;;;;;;1.73;1.63;;;21.50;50.40;;;;;;5038778;28;20286;-82
2023/09/24 07:34:01;;;;;;;1.48;1.38;;;21.60;50.00;;;;;;5039089;28;20235;-82
2023/09/24 07:36:29;;;;;;;1.73;1.60;;;21.80;49.40;;;;;;5038599;28;20716;-82
2023/09/24 07:38:59;;;;;;;2.33;1.55;;;22.00;49.00;;;;;;5039324;28;20222;-82
2023/09/24 07:41:26;;;;;;;2.50;1.42;;;22.20;48.80;;;;;;5038961;28;20211;-82
2023/09/24 07:43:53;;;;;;;2.92;1.70;;;22.40;48.40;;;;;;5021093;28;20200;-82
2023/09/24 07:46:20;;;;;;;1.77;1.50;;;22.50;47.90;;;;;;5037585;28;20293;-82
2023/09/24 07:48:48;;;;;;;1.50;1.40;;;22.70;47.90;;;;;;5021645;28;20199;-82
2023/09/24 07:51:16;;;;;;;1.85;1.40;;;22.80;47.50;;;;;;5036634;28;20199;-82
2023/09/24 07:53:44;;;;;;;1.60;1.50;;;23.00;47.40;;;;;;5037886;28;20208;-82
2023/09/24 07:56:13;;;;;;;1.67;1.45;;;23.10;47.10;;;;;;5038476;28;20579;-82
2023/09/24 07:58:40;;;;;;;1.42;1.33;;;23.20;46.90;;;;;;5037789;28;20290;-82
2023/09/24 08:01:09;;;;;;;2.25;1.60;;;23.30;46.80;;;;;;5036645;28;20216;-82
2023/09/24 08:03:35;;;;;;;1.65;1.55;;;23.40;46.60;;;;;;5037131;28;20199;-82
2023/09/24 08:06:04;;;;;;;1.65;1.40;;;23.50;46.40;;;;;;5037277;28;20222;-82
2023/09/24 08:08:31;;;;;;;1.60;1.50;;;23.50;46.30;;;;;;5037125;28;20210;-82
2023/09/24 08:10:59;;;;;;;1.70;1.50;;;23.60;46.20;;;;;;5036817;28;20206;-82
2023/09/24 08:13:28;;;;;;;1.50;1.40;;;23.70;46.10;;;;;;5036580;28;20210;-82
2023/09/24 08:15:56;;;;;;;1.52;1.40;;;23.80;46.10;;;;;;5036879;28;20219;-82
2023/09/24 08:18:23;;;;;;;1.60;1.50;;;23.80;45.80;;;;;;5037466;28;20249;-83
2023/09/24 08:20:50;;;;;;;2.15;1.42;;;23.80;45.60;;;;;;5042462;28;20313;-82
2023/09/24 08:23:18;;;;;;;1.70;1.60;;;24.00;45.60;;;;;;5027629;28;20203;-82
2023/09/24 08:25:45;;;;;;;1.73;1.60;;;24.00;45.50;;;;;;5030213;28;20694;-82
2023/09/24 08:28:13;;;;;;;1.95;1.50;;;24.00;45.40;;;;;;5045983;28;20657;-83
2023/09/24 08:30:42;;;;;;;1.58;1.40;;;24.10;45.30;;;;;;5037359;28;20256;-83
2023/09/24 08:33:09;;;;;;;1.88;1.60;;;24.20;45.20;;;;;;5054784;28;20233;-82
2023/09/24 08:35:37;;;;;;;1.48;1.33;;;24.20;45.00;;;;;;5036348;28;20219;-82
2023/09/24 08:38:04;;;;;;;1.50;1.40;;;24.30;44.90;;;;;;5049071;28;20200;-82
2023/09/24 08:40:31;;;;;;;1.30;1.20;;;24.20;44.70;;;;;;5036509;28;20232;-82
2023/09/24 08:42:58;;;;;;;1.77;1.40;;;24.30;44.70;;;;;;5036194;28;20573;-82
2023/09/24 08:45:28;;;;;;;1.35;1.25;;;24.40;44.60;;;;;;5054121;28;20250;-82
2023/09/24 08:47:57;;;;;;;2.40;1.60;;;24.50;44.60;;;;;;5036468;28;20201;-82
2023/09/24 08:50:23;;;;;;;1.48;1.38;;;24.50;44.40;;;;;;5037761;28;20199;-82
2023/09/24 08:52:50;;;;;;;1.40;1.30;;;24.50;44.30;;;;;;5037563;28;20199;-83
2023/09/24 08:55:17;;;;;;;2.13;1.55;;;24.60;44.20;;;;;;5037905;28;20215;-83
2023/09/24 08:57:44;;;;;;;2.33;1.40;;;24.60;44.10;;;;;;5021213;28;20200;-82
2023/09/24 09:00:12;;;;;;;1.55;1.27;;;24.60;44.20;;;;;;5037591;28;20676;-82
2023/09/24 09:02:40;;;;;;;1.75;1.50;;;24.70;44.10;;;;;;5061052;28;20274;-82
2023/09/24 09:05:12;;;;;;;1.58;1.48;;;24.70;44.10;;;;;;5045411;28;20172;-82
2023/09/24 09:07:45;;;;;;;2.55;1.48;;;24.70;44.00;;;;;;5055363;28;20202;-82
2023/09/24 09:10:12;;;;;;;2.05;1.45;;;24.80;44.00;;;;;;5039636;28;20200;-82
2023/09/24 09:12:39;;;;;;;2.47;1.70;;;24.70;43.80;;;;;;5040696;28;20210;-82
2023/09/24 09:15:10;;;;;;;2.72;1.48;;;24.80;43.80;;;;;;5038876;28;20187;-82
2023/09/24 09:17:40;;;;;;;1.50;1.40;;;24.80;43.70;;;;;;5038836;28;20635;-82
2023/09/24 09:20:10;;;;;;;1.50;1.30;;;24.80;43.70;;;;;;5039470;28;20256;-83
2023/09/24 09:22:38;;;;;;;1.70;1.60;;;24.90;43.70;;;;;;5039022;28;20234;-81
2023/09/24 09:25:06;;;;;;;2.17;1.40;;;24.90;43.70;;;;;;5013514;28;20276;-82
2023/09/24 09:27:33;;;;;;;1.40;1.30;;;24.90;43.70;;;;;;5039084;28;20199;-82
2023/09/24 09:30:15;;;;;;;2.65;1.40;;;24.90;44.20;;;;;;5039389;28;20245;-82
2023/09/24 09:32:41;;;;;;;1.48;1.38;;;24.90;44.20;;;;;;5057462;28;20187;-82
2023/09/24 09:35:10;;;;;;;4.13;1.40;;;25.00;43.90;;;;;;5035571;28;20187;-81
2023/09/24 09:37:38;;;;;;;1.40;1.30;;;25.10;44.50;;;;;;5036014;28;20199;-81
2023/09/24 09:40:06;;;;;;;1.73;1.40;;;25.20;43.70;;;;;;5038186;28;20191;-81
2023/09/24 09:42:33;;;;;;;2.88;1.67;;;25.20;43.50;;;;;;5039530;28;20309;-81
2023/09/24 09:45:02;;;;;;;2.40;1.40;;;25.20;44.10;;;;;;5039236;28;20676;-81
2023/09/24 09:47:30;;;;;;;1.63;1.50;;;25.20;43.50;;;;;;5039785;28;20289;-81
2023/09/24 09:49:59;;;;;;;1.73;1.55;;;25.20;43.70;;;;;;5039510;28;20195;-81
2023/09/24 09:52:32;;;;;;;1.90;1.60;;;25.30;44.70;;;;;;5039328;28;20432;-81
2023/09/24 09:55:00;;;;;;;1.77;1.40;;;25.30;45.00;;;;;;5039891;28;20668;-80
2023/09/24 09:57:27;;;;;;;43.75;17.15;;;25.30;44.80;;;;;;5039664;28;20719;-80
2023/09/24 09:59:54;;;;;;;72.90;47.58;;;25.30;45.00;;;;;;5039574;28;20202;-80
2023/09/24 10:02:21;;;;;;;149.70;94.45;;;25.30;44.20;;;;;;5039873;28;20685;-81
2023/09/24 10:04:48;;;;;;;206.63;114.75;;;25.40;44.40;;;;;;5039583;28;20277;-81
2023/09/24 10:07:15;;;;;;;193.98;113.25;;;25.30;44.40;;;;;;5039134;28;20260;-81
2023/09/24 10:09:44;;;;;;;187.23;109.97;;;25.40;44.70;;;;;;5039028;28;20195;-81
2023/09/24 10:12:11;;;;;;;183.80;104.68;;;25.40;44.60;;;;;;5038827;28;20187;-81
2023/09/24 10:14:38;;;;;;;165.00;99.32;;;25.40;44.40;;;;;;5039332;28;20661;-81
2023/09/24 10:17:24;;;;;;;185.00;117.65;;;25.50;44.40;;;;;;5039152;28;20261;-81
2023/09/24 10:19:52;;;;;;;167.88;108.22;;;25.50;44.80;;;;;;5057324;28;20175;-81
2023/09/24 10:22:29;;;;;;;175.88;113.53;;;25.40;44.40;;;;;;5038650;28;20276;-81
2023/09/24 10:24:58;;;;;;;148.45;94.32;;;25.50;44.90;;;;;;5057201;28;20668;-81
2023/09/24 10:27:26;;;;;;;147.98;91.55;;;25.50;44.50;;;;;;5039331;28;20591;-81
2023/09/24 10:30:13;;;;;;;137.73;87.95;;;25.50;44.40;;;;;;5038792;28;20245;-81
2023/09/24 10:32:44;;;;;;;148.70;91.78;;;25.50;44.50;;;;;;5032500;28;20195;-81
2023/09/24 10:35:11;;;;;;;136.68;92.60;;;25.50;44.50;;;;;;5038738;28;20195;-81
2023/09/24 10:37:59;;;;;;;138.27;91.05;;;25.50;44.70;;;;;;5038403;28;20199;-81
2023/09/24 10:40:28;;;;;;;133.18;90.55;;;25.50;45.00;;;;;;5038541;28;20199;-81
2023/09/24 10:43:17;;;;;;;134.55;87.47;;;25.50;45.20;;;;;;5038643;28;20219;-81
2023/09/24 10:45:44;;;;;;;129.80;86.32;;;25.50;45.50;;;;;;5038140;28;20280;-80
2023/09/24 10:48:12;;;;;;;134.15;87.65;;;25.50;45.80;;;;;;5039348;28;20248;-81
2023/09/24 10:50:40;;;;;;;111.95;73.30;;;25.40;45.50;;;;;;5037233;28;20563;-81
2023/09/24 10:53:07;;;;;;;124.38;84.30;;;25.30;45.40;;;;;;5038429;28;20286;-81
2023/09/24 10:55:36;;;;;;;112.72;74.13;;;25.30;46.40;;;;;;5038039;28;20654;-81
2023/09/24 10:58:05;;;;;;;108.43;71.90;;;25.30;46.10;;;;;;5039311;28;20262;-81
2023/09/24 11:00:32;;;;;;;111.05;67.88;;;25.30;46.50;;;;;;5039251;28;20225;-81
2023/09/24 11:03:01;;;;;;;92.07;61.17;;;25.10;46.50;;;;;;5038189;28;20206;-81
2023/09/24 11:05:29;;;;;;;92.32;59.03;;;25.10;46.40;;;;;;5038602;28;20272;-81
2023/09/24 11:07:56;;;;;;;91.13;60.15;;;25.10;46.50;;;;;;5039477;28;20609;-81
2023/09/24 11:10:23;;;;;;;93.82;58.20;;;25.10;46.50;;;;;;5040628;28;20199;-81
2023/09/24 11:12:52;;;;;;;87.28;54.78;;;25.10;46.60;;;;;;5038497;28;20195;-81
2023/09/24 11:15:19;;;;;;;81.93;51.50;;;25.10;46.70;;;;;;5039493;28;20219;-81
2023/09/24 11:17:46;;;;;;;83.13;54.90;;;25.00;46.70;;;;;;5041617;28;20195;-81
2023/09/24 11:20:13;;;;;;;82.28;54.28;;;25.00;47.30;;;;;;5043904;28;20650;-82
2023/09/24 11:22:41;;;;;;;80.18;50.45;;;25.00;47.60;;;;;;5043936;28;20211;-82
2023/09/24 11:25:09;;;;;;;72.35;49.22;;;25.00;47.50;;;;;;5042154;28;20187;-81
2023/09/24 11:27:36;;;;;;;70.90;48.30;;;25.00;47.70;;;;;;5042051;28;20199;-81
2023/09/24 11:30:06;;;;;;;72.00;47.95;;;24.90;47.50;;;;;;5025572;28;20614;-81
2023/09/24 11:32:33;;;;;;;71.30;47.40;;;24.90;47.80;;;;;;5041554;28;20191;-81
2023/09/24 11:35:07;;;;;;;59.72;43.15;;;24.90;47.90;;;;;;5040291;28;20229;-81
2023/09/24 11:37:49;;;;;;;62.90;43.80;;;24.90;47.90;;;;;;5040202;28;20190;-81
2023/09/24 11:40:27;;;;;;;57.67;37.45;;;24.90;48.20;;;;;;5022011;28;20236;-81
2023/09/24 11:42:56;;;;;;;56.60;38.15;;;24.90;48.00;;;;;;5037157;28;20206;-81
2023/09/24 11:45:42;;;;;;;55.20;37.17;;;24.90;48.10;;;;;;5037397;28;20215;-81
2023/09/24 11:48:10;;;;;;;51.55;32.85;;;24.90;48.20;;;;;;5037223;28;20637;-79
2023/09/24 11:50:36;;;;;;;51.55;32.47;;;24.90;48.10;;;;;;5021062;28;20198;-79
2023/09/24 11:53:04;;;;;;;37.55;24.92;;;25.00;47.50;;;;;;5037626;28;20222;-79
2023/09/24 11:55:31;;;;;;;22.77;16.13;;;24.90;46.20;;;;;;5037420;28;20215;-79
2023/09/24 11:57:58;;;;;;;21.73;12.90;;;24.90;44.50;;;;;;5022032;28;20245;-79
2023/09/24 12:00:26;;;;;;;18.10;10.77;;;24.90;44.20;;;;;;5037412;28;20198;-79
2023/09/24 12:02:54;;;;;;;13.40;9.52;;;24.80;43.10;;;;;;5036468;28;20218;-79
2023/09/24 12:05:21;;;;;;;12.60;7.63;;;24.80;42.90;;;;;;5037230;28;20705;-78
2023/09/24 12:07:50;;;;;;;8.02;5.82;;;24.80;43.50;;;;;;5034209;28;20289;-79
2023/09/24 12:10:17;;;;;;;9.10;6.60;;;24.70;43.50;;;;;;5037109;28;20209;-79
2023/09/24 12:12:44;;;;;;;7.38;4.55;;;24.70;43.80;;;;;;5055068;28;20183;-79
2023/09/24 12:15:13;;;;;;;9.13;5.80;;;24.60;42.40;;;;;;5036766;28;20718;-79
2023/09/24 12:17:41;;;;;;;8.77;5.32;;;24.60;43.50;;;;;;5036628;28;20565;-79
2023/09/24 12:20:11;;;;;;;6.32;3.72;;;24.60;43.60;;;;;;5036750;28;20206;-79
2023/09/24 12:22:40;;;;;;;5.30;3.20;;;24.50;41.80;;;;;;5067934;22;20191;-80
2023/09/24 12:25:08;;;;;;;6.93;3.88;;;24.50;41.30;;;;;;5025019;28;20216;-78
2023/09/24 12:27:35;;;;;;;6.20;3.97;;;24.40;41.50;;;;;;5036178;28;20202;-77
2023/09/24 12:30:03;;;;;;;4.90;3.55;;;24.40;42.20;;;;;;5036050;28;20237;-77
2023/09/24 12:32:31;;;;;;;8.68;4.78;;;24.40;43.00;;;;;;5019583;28;20286;-78
2023/09/24 12:34:58;;;;;;;19.75;11.70;;;24.40;42.70;;;;;;5019558;28;20199;-77
2023/09/24 12:37:26;;;;;;;9.27;5.93;;;24.30;45.10;;;;;;5036127;28;20256;-77
2023/09/24 12:39:53;;;;;;;8.98;6.18;;;24.30;43.70;;;;;;5035870;28;20218;-78
2023/09/24 12:42:20;;;;;;;7.78;5.45;;;24.30;41.10;;;;;;5035970;28;20254;-77
2023/09/24 12:44:48;;;;;;;7.40;3.65;;;24.30;42.90;;;;;;5036776;28;20195;-77
2023/09/24 12:47:14;;;;;;;4.10;2.78;;;24.30;40.90;;;;;;5036409;28;20267;-78
2023/09/24 12:49:41;;;;;;;8.25;4.60;;;24.20;40.00;;;;;;5036566;28;20218;-80